Time;durP1;ratioP1;P1;durP2;ratioP2;P2;SDS_P1;SDS_P2;PMS_P1;PMS_P2;Temp;Humidity;BMP_temperature;BMP_pressure;BME280_temperature;BME280_humidity;BME280_pressure;Samples;Min_cycle;Max_cycle;Signal;HPM_P1;HPM_P2
2024/03/27 00:01:10;;;;;;;0.30;0.20;;;12.60;96.10;;;;;;5086548;28;20204;-78
2024/03/27 00:03:36;;;;;;;0.30;0.20;;;12.60;96.00;;;;;;5087169;28;20443;-78
2024/03/27 00:06:05;;;;;;;0.30;0.20;;;12.60;96.00;;;;;;5087349;28;20405;-77
2024/03/27 00:08:31;;;;;;;0.30;0.20;;;12.50;96.00;;;;;;5086631;28;20867;-75
2024/03/27 00:10:58;;;;;;;0.93;0.93;;;12.50;96.20;;;;;;5085872;28;20455;-75
2024/03/27 00:13:24;;;;;;;0.30;0.20;;;12.50;96.20;;;;;;5086565;28;20476;-77
2024/03/27 00:15:54;;;;;;;0.30;0.20;;;12.50;96.20;;;;;;5086721;28;20401;-76
2024/03/27 00:18:21;;;;;;;0.30;0.20;;;12.50;96.20;;;;;;5085188;28;20555;-75
2024/03/27 00:20:47;;;;;;;0.30;0.20;;;12.50;96.20;;;;;;5085629;28;20453;-78
2024/03/27 00:23:14;;;;;;;0.30;0.20;;;12.50;96.30;;;;;;5085797;28;20475;-78
2024/03/27 00:25:41;;;;;;;0.30;0.20;;;12.50;96.20;;;;;;5085340;28;20433;-76
2024/03/27 00:28:06;;;;;;;0.30;0.20;;;12.50;96.40;;;;;;5084784;28;20465;-75
2024/03/27 00:30:32;;;;;;;0.30;0.20;;;12.50;96.60;;;;;;5087187;28;20938;-77
2024/03/27 00:32:59;;;;;;;0.30;0.30;;;12.40;96.30;;;;;;5084820;28;20341;-76
2024/03/27 00:35:25;;;;;;;0.30;0.20;;;12.50;96.30;;;;;;5086680;28;20175;-75
2024/03/27 00:37:53;;;;;;;0.30;0.20;;;12.50;96.40;;;;;;5086327;28;20425;-78
2024/03/27 00:40:20;;;;;;;0.30;0.20;;;12.50;96.40;;;;;;5086715;28;20416;-78
2024/03/27 00:42:46;;;;;;;0.30;0.20;;;12.60;96.40;;;;;;5084665;28;20995;-75
2024/03/27 00:45:13;;;;;;;0.30;0.20;;;12.60;96.40;;;;;;5085250;28;20419;-78
2024/03/27 00:47:39;;;;;;;0.30;0.20;;;12.50;96.40;;;;;;5086306;28;20484;-76
2024/03/27 00:50:05;;;;;;;0.30;0.20;;;12.40;96.60;;;;;;5086275;28;20427;-77
2024/03/27 00:52:32;;;;;;;0.30;0.20;;;12.40;96.60;;;;;;5084835;28;20476;-75
2024/03/27 00:54:57;;;;;;;0.30;0.20;;;12.40;96.70;;;;;;5084888;28;20525;-78
2024/03/27 00:57:23;;;;;;;0.30;0.20;;;12.40;96.80;;;;;;5085958;28;20807;-78
2024/03/27 00:59:49;;;;;;;0.30;0.20;;;12.40;96.90;;;;;;5084866;28;20176;-76
2024/03/27 01:02:15;;;;;;;0.30;0.20;;;12.40;97.00;;;;;;5084851;28;20413;-78
2024/03/27 01:04:41;;;;;;;0.30;0.20;;;12.50;97.00;;;;;;5086215;28;20165;-75
2024/03/27 01:07:06;;;;;;;0.30;0.20;;;12.50;97.00;;;;;;5085816;28;20425;-75
2024/03/27 01:09:33;;;;;;;0.30;0.20;;;12.50;97.10;;;;;;5086260;28;20179;-78
2024/03/27 01:11:59;;;;;;;0.30;0.20;;;12.50;97.10;;;;;;5084519;28;20188;-78
2024/03/27 01:14:25;;;;;;;0.30;0.20;;;12.50;97.20;;;;;;5085893;28;20489;-76
2024/03/27 01:16:51;;;;;;;0.30;0.20;;;12.50;97.20;;;;;;5084545;28;20187;-75
2024/03/27 01:19:16;;;;;;;0.30;0.20;;;12.60;97.30;;;;;;5086085;28;21017;-75
2024/03/27 01:21:42;;;;;;;0.30;0.20;;;12.50;97.40;;;;;;5085922;28;20169;-78
2024/03/27 01:24:08;;;;;;;0.30;0.20;;;12.50;97.50;;;;;;5085582;28;20200;-76
2024/03/27 01:26:33;;;;;;;0.30;0.20;;;12.40;97.60;;;;;;5082859;28;20734;-78
2024/03/27 01:28:59;;;;;;;0.30;0.20;;;12.40;97.70;;;;;;5085111;28;20200;-78
2024/03/27 01:31:25;;;;;;;0.30;0.20;;;12.40;97.90;;;;;;5085449;28;20252;-78
2024/03/27 01:33:50;;;;;;;0.30;0.20;;;12.40;97.90;;;;;;5084243;28;20583;-78
2024/03/27 01:36:16;;;;;;;0.30;0.20;;;12.40;98.00;;;;;;5086140;28;20169;-77
2024/03/27 01:38:41;;;;;;;0.30;0.20;;;12.30;98.10;;;;;;5084070;28;20200;-78
2024/03/27 01:41:07;;;;;;;0.30;0.20;;;12.40;98.10;;;;;;5084613;28;20548;-78
2024/03/27 01:43:33;;;;;;;0.30;0.20;;;12.30;98.20;;;;;;5083924;28;20200;-75
2024/03/27 01:45:59;;;;;;;0.30;0.20;;;12.20;98.30;;;;;;5085718;28;20182;-75
2024/03/27 01:48:25;;;;;;;0.30;0.20;;;12.20;98.40;;;;;;5083719;28;20689;-75
2024/03/27 01:50:53;;;;;;;0.30;0.20;;;12.30;98.40;;;;;;5085609;28;20922;-76
2024/03/27 01:53:20;;;;;;;0.30;0.20;;;12.20;98.50;;;;;;5083758;28;20479;-75
2024/03/27 01:55:47;;;;;;;0.30;0.20;;;12.20;98.60;;;;;;5085558;28;20453;-75
2024/03/27 01:58:13;;;;;;;0.30;0.20;;;12.20;98.70;;;;;;5083505;28;20437;-78
2024/03/27 02:00:39;;;;;;;0.30;0.20;;;12.20;98.80;;;;;;5084200;28;20462;-77
2024/03/27 02:03:05;;;;;;;0.30;0.20;;;12.10;98.70;;;;;;5083678;28;20433;-75
2024/03/27 02:05:32;;;;;;;0.30;0.20;;;12.20;98.70;;;;;;5084353;28;20275;-78
2024/03/27 02:07:57;;;;;;;0.30;0.20;;;12.20;98.70;;;;;;5083861;28;20544;-75
2024/03/27 02:10:23;;;;;;;0.30;0.20;;;12.20;98.70;;;;;;5085694;28;20894;-78
2024/03/27 02:12:49;;;;;;;0.30;0.20;;;12.20;98.70;;;;;;5084923;28;20540;-78
2024/03/27 02:15:15;;;;;;;0.30;0.20;;;12.20;98.80;;;;;;5083942;28;20172;-76
2024/03/27 02:17:40;;;;;;;0.30;0.20;;;12.20;98.90;;;;;;5084935;28;20239;-76
2024/03/27 02:23:36;;;;;;;0.30;0.20;;;12.20;98.90;;;;;;5084727;28;20276;-75
2024/03/27 02:26:26;;;;;;;0.30;0.20;;;12.10;99.00;;;;;;5085267;28;20815;-78
2024/03/27 02:28:52;;;;;;;0.30;0.20;;;12.00;99.20;;;;;;5076287;28;20445;-78
2024/03/27 02:31:18;;;;;;;0.30;0.20;;;12.00;99.20;;;;;;5082882;28;20405;-78
2024/03/27 02:33:43;;;;;;;0.30;0.20;;;12.10;99.20;;;;;;5084742;28;20766;-78
2024/03/27 02:36:09;;;;;;;0.30;0.20;;;12.10;99.20;;;;;;5084881;28;20168;-75
2024/03/27 02:38:34;;;;;;;0.30;0.20;;;12.10;99.10;;;;;;5086832;28;20404;-77
2024/03/27 02:41:00;;;;;;;0.30;0.20;;;12.00;99.20;;;;;;5087598;28;20625;-76
2024/03/27 02:43:26;;;;;;;0.30;0.20;;;11.90;99.30;;;;;;5087190;28;20199;-75
2024/03/27 02:45:51;;;;;;;0.30;0.20;;;11.90;99.50;;;;;;5087739;28;20634;-76
2024/03/27 02:48:18;;;;;;;0.30;0.20;;;11.90;99.60;;;;;;5088257;28;20544;-78
2024/03/27 02:50:43;;;;;;;0.30;0.20;;;11.90;99.70;;;;;;5089002;28;20181;-76
2024/03/27 02:53:09;;;;;;;0.30;0.20;;;11.80;99.80;;;;;;5088032;28;20564;-77
2024/03/27 02:55:35;;;;;;;0.30;0.20;;;11.80;99.90;;;;;;5087665;28;20211;-77
2024/03/27 02:58:00;;;;;;;0.30;0.20;;;11.70;99.90;;;;;;5086994;28;20331;-78
2024/03/27 03:00:26;;;;;;;0.30;0.20;;;11.60;99.90;;;;;;5087098;28;20640;-77
2024/03/27 03:02:51;;;;;;;0.30;0.20;;;11.60;99.90;;;;;;5087035;28;20606;-75
2024/03/27 03:05:17;;;;;;;0.30;0.20;;;11.50;99.90;;;;;;5088678;28;20199;-75
2024/03/27 03:07:44;;;;;;;0.30;0.20;;;11.50;99.90;;;;;;5087679;28;20271;-75
2024/03/27 03:10:10;;;;;;;0.30;0.20;;;11.50;99.90;;;;;;5088105;28;20168;-75
2024/03/27 03:12:35;;;;;;;0.30;0.20;;;11.40;99.90;;;;;;5088061;28;20980;-78
2024/03/27 03:15:01;;;;;;;0.30;0.20;;;11.40;99.90;;;;;;5086887;28;20177;-75
2024/03/27 03:17:26;;;;;;;0.30;0.20;;;11.40;99.90;;;;;;5088043;28;20285;-75
2024/03/27 03:19:52;;;;;;;0.30;0.20;;;11.30;99.90;;;;;;5088036;28;20177;-76
2024/03/27 03:22:18;;;;;;;0.30;0.20;;;11.30;99.90;;;;;;5087825;28;20251;-78
2024/03/27 03:24:43;;;;;;;0.30;0.20;;;11.40;99.90;;;;;;5088181;28;20184;-78
2024/03/27 03:27:09;;;;;;;0.30;0.20;;;11.40;99.90;;;;;;5086453;28;20176;-75
2024/03/27 03:29:35;;;;;;;0.30;0.20;;;11.30;99.90;;;;;;5088224;28;20188;-78
2024/03/27 03:32:01;;;;;;;0.30;0.20;;;11.30;99.90;;;;;;5086774;28;20225;-77
2024/03/27 03:34:27;;;;;;;0.30;0.20;;;11.30;99.90;;;;;;5087738;28;20445;-75
2024/03/27 03:36:53;;;;;;;0.30;0.20;;;11.30;99.90;;;;;;5087708;28;20165;-75
2024/03/27 03:39:19;;;;;;;0.30;0.20;;;11.30;99.90;;;;;;5087787;28;20204;-75
2024/03/27 03:41:44;;;;;;;0.30;0.20;;;11.20;99.90;;;;;;5087661;28;20416;-75
2024/03/27 03:44:10;;;;;;;0.30;0.20;;;11.20;99.90;;;;;;5085876;28;20253;-75
2024/03/27 03:46:35;;;;;;;0.30;0.20;;;11.20;99.90;;;;;;5087484;28;20175;-78
2024/03/27 03:49:01;;;;;;;0.30;0.20;;;11.20;99.90;;;;;;5086719;28;20270;-75
2024/03/27 03:51:27;;;;;;;0.30;0.20;;;11.20;99.90;;;;;;5085812;28;20545;-77
2024/03/27 03:53:53;;;;;;;0.30;0.20;;;11.20;99.90;;;;;;5086065;28;20227;-76
2024/03/27 03:56:19;;;;;;;0.30;0.20;;;11.20;99.90;;;;;;5087650;28;20179;-77
2024/03/27 03:58:44;;;;;;;0.30;0.20;;;11.20;99.90;;;;;;5086920;28;20774;-75
2024/03/27 04:01:11;;;;;;;0.30;0.20;;;11.20;99.90;;;;;;5085956;28;20504;-77
2024/03/27 04:03:37;;;;;;;0.30;0.20;;;11.20;99.90;;;;;;5087160;28;20196;-75
2024/03/27 04:06:03;;;;;;;0.30;0.20;;;11.20;99.90;;;;;;5085920;28;20693;-77
2024/03/27 04:08:28;;;;;;;0.30;0.20;;;11.20;99.90;;;;;;5085180;28;20432;-76
2024/03/27 04:10:54;;;;;;;0.30;0.20;;;11.10;99.90;;;;;;5087450;28;20397;-78
2024/03/27 04:13:20;;;;;;;0.30;0.20;;;11.10;99.90;;;;;;5086625;28;20212;-77
2024/03/27 04:15:46;;;;;;;0.30;0.20;;;11.20;99.90;;;;;;5087005;28;20304;-76
2024/03/27 04:18:12;;;;;;;0.30;0.20;;;11.20;99.90;;;;;;5085064;28;20252;-78
2024/03/27 04:20:41;;;;;;;0.30;0.20;;;11.20;99.90;;;;;;5087545;28;20220;-75
2024/03/27 04:23:07;;;;;;;0.30;0.20;;;11.20;99.90;;;;;;5085387;28;20292;-75
2024/03/27 04:25:32;;;;;;;0.30;0.20;;;11.20;99.90;;;;;;5086844;28;20255;-75
2024/03/27 04:27:58;;;;;;;0.30;0.20;;;11.20;99.90;;;;;;5085103;28;20269;-78
2024/03/27 04:30:24;;;;;;;0.30;0.20;;;11.20;99.90;;;;;;5086754;28;20214;-75
2024/03/27 04:32:49;;;;;;;0.30;0.20;;;11.20;99.90;;;;;;5086309;28;20269;-78
2024/03/27 04:35:15;;;;;;;0.30;0.20;;;11.20;99.90;;;;;;5085944;28;20177;-78
2024/03/27 04:37:41;;;;;;;0.30;0.20;;;11.10;99.90;;;;;;5086075;28;20204;-76
2024/03/27 04:40:11;;;;;;;0.30;0.20;;;11.10;99.90;;;;;;5086848;28;20409;-75
2024/03/27 04:42:40;;;;;;;0.30;0.28;;;11.20;99.90;;;;;;5086195;28;20574;-75
2024/03/27 04:45:07;;;;;;;0.30;0.20;;;11.30;99.90;;;;;;5085419;28;20284;-75
2024/03/27 04:47:36;;;;;;;0.30;0.20;;;11.30;99.90;;;;;;5084974;28;20192;-78
2024/03/27 04:50:03;;;;;;;0.30;0.20;;;11.30;99.90;;;;;;5086552;28;20730;-78
2024/03/27 04:52:29;;;;;;;0.30;0.20;;;11.40;99.90;;;;;;5082203;28;20224;-75
2024/03/27 04:54:55;;;;;;;0.30;0.20;;;11.40;99.90;;;;;;5082841;28;20374;-78
2024/03/27 04:57:20;;;;;;;0.30;0.20;;;11.30;99.90;;;;;;5085681;28;20168;-76
2024/03/27 04:59:46;;;;;;;0.30;0.20;;;11.30;99.90;;;;;;5085665;28;20441;-78
2024/03/27 05:02:12;;;;;;;0.30;0.20;;;11.30;99.90;;;;;;5085564;28;20194;-76
2024/03/27 05:04:38;;;;;;;0.30;0.20;;;11.30;99.90;;;;;;5086164;28;20409;-76
2024/03/27 05:07:04;;;;;;;0.30;0.20;;;11.30;99.90;;;;;;5085998;28;20571;-77
2024/03/27 05:09:30;;;;;;;0.30;0.20;;;11.20;99.90;;;;;;5085909;28;20263;-76
2024/03/27 05:12:00;;;;;;;0.30;0.20;;;11.20;99.90;;;;;;5086786;28;20715;-78
2024/03/27 05:14:26;;;;;;;0.30;0.20;;;11.20;99.90;;;;;;5106020;28;20684;-77
2024/03/27 05:16:52;;;;;;;0.30;0.20;;;11.20;99.90;;;;;;5121968;27;20171;-75
2024/03/27 05:19:17;;;;;;;0.30;0.20;;;11.20;99.90;;;;;;5122355;27;20219;-78
2024/03/27 05:21:44;;;;;;;0.30;0.20;;;11.20;99.90;;;;;;5106329;28;20649;-76
2024/03/27 05:24:09;;;;;;;0.30;0.20;;;11.20;99.90;;;;;;5106157;28;20672;-76
2024/03/27 05:26:35;;;;;;;0.30;0.20;;;11.30;99.90;;;;;;5106518;28;20464;-74
2024/03/27 05:29:01;;;;;;;0.30;0.20;;;11.20;99.90;;;;;;5106289;28;20436;-77
2024/03/27 05:31:26;;;;;;;0.30;0.20;;;11.20;99.90;;;;;;5121978;27;20387;-74
2024/03/27 05:33:53;;;;;;;0.30;0.20;;;11.10;99.90;;;;;;5102915;28;20251;-74
2024/03/27 05:36:18;;;;;;;0.30;0.27;;;11.10;99.90;;;;;;5084219;28;20177;-77
2024/03/27 05:38:44;;;;;;;0.30;0.20;;;11.20;99.90;;;;;;5083660;28;20448;-76
2024/03/27 05:41:09;;;;;;;0.30;0.20;;;11.30;99.90;;;;;;5085645;28;20229;-75
2024/03/27 05:43:35;;;;;;;0.30;0.20;;;11.30;99.90;;;;;;5084969;28;20724;-74
2024/03/27 05:46:01;;;;;;;0.30;0.20;;;11.30;99.90;;;;;;5084781;28;20180;-75
2024/03/27 05:48:27;;;;;;;0.30;0.20;;;11.30;99.90;;;;;;5083681;28;20613;-74
2024/03/27 05:50:53;;;;;;;0.30;0.20;;;11.30;99.90;;;;;;5083091;28;20418;-75
2024/03/27 05:53:20;;;;;;;0.30;0.20;;;11.30;99.90;;;;;;5083090;28;20500;-74
2024/03/27 05:55:58;;;;;;;0.30;0.20;;;11.30;99.90;;;;;;5084672;28;20211;-74
2024/03/27 05:58:26;;;;;;;0.30;0.20;;;11.40;99.90;;;;;;5081652;28;20212;-77
2024/03/27 06:00:51;;;;;;;0.30;0.20;;;11.40;99.90;;;;;;5083025;28;20177;-77
2024/03/27 06:03:17;;;;;;;0.30;0.20;;;11.40;99.90;;;;;;5083578;28;20261;-77
2024/03/27 06:05:43;;;;;;;0.30;0.20;;;11.50;99.90;;;;;;5084042;28;20184;-77
2024/03/27 06:08:10;;;;;;;0.30;0.20;;;11.40;99.90;;;;;;5082100;28;20260;-76
2024/03/27 06:10:35;;;;;;;0.30;0.20;;;11.40;99.90;;;;;;5084105;28;20180;-74
2024/03/27 06:13:04;;;;;;;0.30;0.20;;;11.40;99.90;;;;;;5085821;28;20215;-74
2024/03/27 06:15:30;;;;;;;0.40;0.20;;;11.40;99.90;;;;;;5088732;28;20669;-76
2024/03/27 06:17:56;;;;;;;0.30;0.20;;;11.50;99.90;;;;;;5098216;28;20239;-75
2024/03/27 06:20:21;;;;;;;0.30;0.20;;;11.60;99.90;;;;;;5089052;28;20657;-74
2024/03/27 06:22:48;;;;;;;0.30;0.20;;;11.60;99.90;;;;;;5088056;28;20295;-74
2024/03/27 06:25:13;;;;;;;0.30;0.20;;;11.60;99.90;;;;;;5083133;28;20673;-75
2024/03/27 06:27:39;;;;;;;0.30;0.20;;;11.70;99.90;;;;;;5079300;28;20196;-75
2024/03/27 06:30:07;;;;;;;0.30;0.20;;;11.70;99.90;;;;;;5085984;28;20180;-77
2024/03/27 06:32:33;;;;;;;0.30;0.20;;;11.80;99.90;;;;;;5083412;28;20219;-77
2024/03/27 06:35:00;;;;;;;1.50;0.63;;;11.90;99.90;;;;;;5080197;28;20627;-76
2024/03/27 06:37:26;;;;;;;0.30;0.20;;;12.00;99.90;;;;;;5080085;28;20732;-77
2024/03/27 06:39:52;;;;;;;0.30;0.20;;;12.00;99.90;;;;;;5082670;28;20727;-74
2024/03/27 06:42:18;;;;;;;0.80;0.77;;;12.10;99.90;;;;;;5082061;28;20177;-74
2024/03/27 06:44:44;;;;;;;0.30;0.20;;;12.20;99.90;;;;;;5079894;28;20388;-77
2024/03/27 06:47:10;;;;;;;0.30;0.20;;;12.20;99.90;;;;;;5079961;28;20594;-77
2024/03/27 06:49:36;;;;;;;0.30;0.20;;;12.20;99.90;;;;;;5082528;28;20404;-77
2024/03/27 06:52:02;;;;;;;0.30;0.20;;;12.20;99.90;;;;;;5082146;28;20751;-74
2024/03/27 06:54:27;;;;;;;0.30;0.20;;;12.30;99.90;;;;;;5077870;28;20485;-74
2024/03/27 06:56:53;;;;;;;0.30;0.20;;;12.40;99.90;;;;;;5077589;28;20417;-76
2024/03/27 06:59:19;;;;;;;0.30;0.20;;;12.40;99.90;;;;;;5082692;28;20241;-74
2024/03/27 07:01:44;;;;;;;0.30;0.20;;;12.40;99.90;;;;;;5082956;28;20309;-76
2024/03/27 07:04:10;;;;;;;0.30;0.20;;;12.40;99.90;;;;;;5081685;28;20234;-74
2024/03/27 07:06:36;;;;;;;0.30;0.20;;;12.40;99.90;;;;;;5079818;28;20230;-74
2024/03/27 07:09:03;;;;;;;0.30;0.30;;;12.50;99.90;;;;;;5081264;28;20797;-75
2024/03/27 07:11:30;;;;;;;0.30;0.20;;;12.60;99.90;;;;;;5077640;28;20413;-75
2024/03/27 07:13:55;;;;;;;0.30;0.20;;;12.70;99.90;;;;;;5079612;28;21019;-77
2024/03/27 07:16:21;;;;;;;2.30;2.10;;;12.70;99.90;;;;;;5076647;28;20413;-77
2024/03/27 07:18:47;;;;;;;0.30;0.20;;;12.80;99.90;;;;;;5075511;28;20679;-77
2024/03/27 07:21:13;;;;;;;0.30;0.20;;;12.90;99.90;;;;;;5081969;28;20902;-74
2024/03/27 07:23:39;;;;;;;0.30;0.20;;;12.90;99.90;;;;;;5082615;28;20475;-75
2024/03/27 07:26:05;;;;;;;0.30;0.20;;;13.00;99.90;;;;;;5081255;28;20418;-74
2024/03/27 07:28:31;;;;;;;0.30;0.20;;;13.10;99.90;;;;;;5083889;28;20701;-75
2024/03/27 07:31:00;;;;;;;0.30;0.20;;;13.30;99.90;;;;;;5080560;28;20549;-77
2024/03/27 07:33:27;;;;;;;0.30;0.20;;;13.30;99.90;;;;;;5082972;28;21078;-75
2024/03/27 07:35:56;;;;;;;0.30;0.20;;;13.40;99.90;;;;;;5083303;28;20412;-74
2024/03/27 07:38:25;;;;;;;151.97;23.53;;;13.50;99.90;;;;;;5081478;28;20444;-74
2024/03/27 07:40:51;;;;;;;0.30;0.20;;;13.60;99.90;;;;;;5083060;28;20420;-76
2024/03/27 07:43:16;;;;;;;0.30;0.20;;;13.80;99.90;;;;;;5080923;28;21231;-75
2024/03/27 07:45:43;;;;;;;0.30;0.20;;;13.80;99.90;;;;;;5083312;28;20265;-77
2024/03/27 07:48:09;;;;;;;0.30;0.20;;;13.90;99.90;;;;;;5084448;28;20296;-77
2024/03/27 07:50:35;;;;;;;0.30;0.20;;;13.90;99.90;;;;;;5083106;28;20822;-77
2024/03/27 07:53:01;;;;;;;0.30;0.20;;;14.00;99.90;;;;;;5083269;28;20922;-74
2024/03/27 07:55:27;;;;;;;0.30;0.20;;;14.10;99.90;;;;;;5078148;28;20519;-77
2024/03/27 07:57:52;;;;;;;0.30;0.20;;;14.10;99.90;;;;;;5078458;28;20200;-75
2024/03/27 08:00:18;;;;;;;0.30;0.20;;;14.20;99.90;;;;;;5081655;28;20436;-77
2024/03/27 08:02:44;;;;;;;0.30;0.20;;;14.20;99.90;;;;;;5082668;28;20593;-75
2024/03/27 08:05:10;;;;;;;0.30;0.20;;;14.20;99.90;;;;;;5080026;28;20224;-75
2024/03/27 08:07:35;;;;;;;0.30;0.20;;;14.20;99.90;;;;;;5070364;28;20432;-75
2024/03/27 08:10:05;;;;;;;0.30;0.20;;;14.20;99.90;;;;;;5073093;28;20191;-78
2024/03/27 08:12:31;;;;;;;0.30;0.20;;;14.30;99.90;;;;;;5080767;28;20712;-75
2024/03/27 08:14:57;;;;;;;0.30;0.20;;;14.40;99.90;;;;;;5078261;28;20432;-75
2024/03/27 08:17:23;;;;;;;0.30;0.20;;;14.60;99.90;;;;;;5076932;28;20531;-78
2024/03/27 08:19:49;;;;;;;0.30;0.20;;;14.70;99.90;;;;;;5074776;28;20432;-76
2024/03/27 08:22:15;;;;;;;0.30;0.20;;;14.70;99.90;;;;;;5076051;28;20176;-75
2024/03/27 08:24:41;;;;;;;0.30;0.20;;;14.80;99.90;;;;;;5077295;28;20195;-78
2024/03/27 08:27:06;;;;;;;0.30;0.20;;;14.90;99.90;;;;;;5079205;28;21059;-78
2024/03/27 08:29:33;;;;;;;1.90;1.80;;;15.00;99.90;;;;;;5076185;28;20188;-74
2024/03/27 08:31:59;;;;;;;0.30;0.20;;;15.10;99.90;;;;;;5080965;28;20177;-75
2024/03/27 08:34:25;;;;;;;0.40;0.20;;;15.20;99.90;;;;;;5081069;28;20485;-75
2024/03/27 08:36:51;;;;;;;0.30;0.30;;;15.40;99.90;;;;;;5083099;28;20634;-74
2024/03/27 08:39:17;;;;;;;0.30;0.20;;;15.70;99.90;;;;;;5081418;28;20479;-75
2024/03/27 08:41:46;;;;;;;0.30;0.20;;;16.00;99.90;;;;;;5083417;28;20448;-79
2024/03/27 08:44:12;;;;;;;0.30;0.20;;;16.30;99.90;;;;;;5082770;28;20271;-78
2024/03/27 08:46:38;;;;;;;0.40;0.20;;;16.90;99.90;;;;;;5081791;28;20928;-76
2024/03/27 08:49:05;;;;;;;0.40;0.20;;;17.40;99.90;;;;;;5082319;28;20463;-78
2024/03/27 08:51:31;;;;;;;0.40;0.20;;;17.90;99.90;;;;;;5084043;28;20822;-75
2024/03/27 08:53:56;;;;;;;0.40;0.20;;;18.20;99.90;;;;;;5079536;28;20503;-78
2024/03/27 08:56:22;;;;;;;0.30;0.20;;;18.30;99.90;;;;;;5079799;28;20424;-76
2024/03/27 08:58:48;;;;;;;0.40;0.20;;;18.50;99.90;;;;;;5079878;28;20208;-76
2024/03/27 09:01:18;;;;;;;0.40;0.20;;;18.80;99.90;;;;;;5078169;28;20199;-76
2024/03/27 09:03:45;;;;;;;0.30;0.20;;;19.10;99.90;;;;;;5077991;28;20208;-75
2024/03/27 09:06:11;;;;;;;0.40;0.20;;;18.90;99.90;;;;;;5068707;28;20951;-78
2024/03/27 09:08:37;;;;;;;0.30;0.20;;;18.80;99.90;;;;;;5069383;28;20535;-75
2024/03/27 09:11:06;;;;;;;0.30;0.20;;;19.00;99.90;;;;;;5077550;28;20435;-75
2024/03/27 09:13:31;;;;;;;0.30;0.20;;;19.00;99.90;;;;;;5073347;28;20746;-77
2024/03/27 09:16:01;;;;;;;0.30;0.20;;;19.10;99.90;;;;;;5069766;28;20481;-78
2024/03/27 09:18:28;;;;;;;0.30;0.30;;;19.40;99.90;;;;;;5069530;28;20472;-78
2024/03/27 09:20:58;;;;;;;0.30;0.20;;;19.70;99.90;;;;;;5074018;28;20651;-75
2024/03/27 09:23:24;;;;;;;0.30;0.27;;;19.80;99.90;;;;;;5068516;28;20804;-77
2024/03/27 09:25:57;;;;;;;0.30;0.20;;;20.10;99.90;;;;;;5074772;28;20911;-77
2024/03/27 09:28:23;;;;;;;0.30;0.20;;;20.00;99.90;;;;;;5074303;28;21221;-76
2024/03/27 09:30:49;;;;;;;4.63;2.13;;;20.00;99.90;;;;;;5070682;28;20947;-76
2024/03/27 09:33:15;;;;;;;0.30;0.20;;;20.00;99.90;;;;;;5070429;28;20543;-78
2024/03/27 09:35:42;;;;;;;1.13;1.13;;;19.80;99.90;;;;;;5069569;28;20431;-78
2024/03/27 09:38:08;;;;;;;0.30;0.20;;;19.70;99.90;;;;;;5077976;28;20444;-75
2024/03/27 09:40:47;;;;;;;0.30;0.20;;;19.60;99.90;;;;;;5079390;28;20421;-76
2024/03/27 09:43:15;;;;;;;0.30;0.20;;;19.50;99.90;;;;;;5077051;28;20464;-76
2024/03/27 09:45:43;;;;;;;0.40;0.30;;;19.60;99.90;;;;;;5076020;28;20437;-78
2024/03/27 09:48:16;;;;;;;0.33;0.20;;;19.80;99.90;;;;;;5069932;28;20471;-75
2024/03/27 09:50:42;;;;;;;0.30;0.20;;;19.90;99.90;;;;;;5075648;28;21079;-78
2024/03/27 09:53:10;;;;;;;0.30;0.30;;;20.00;99.90;;;;;;5073211;28;20480;-76
2024/03/27 09:55:38;;;;;;;0.30;0.20;;;20.00;99.90;;;;;;5078899;28;22090;-75
2024/03/27 09:58:12;;;;;;;0.30;0.20;;;20.00;99.90;;;;;;5068762;28;20445;-78
2024/03/27 10:00:39;;;;;;;0.30;0.20;;;19.90;99.90;;;;;;5080221;28;20850;-79
2024/03/27 10:03:05;;;;;;;0.30;0.20;;;19.90;99.90;;;;;;5076310;28;20444;-79
2024/03/27 10:05:32;;;;;;;0.30;0.20;;;19.80;99.90;;;;;;5075673;28;20425;-76
2024/03/27 10:07:59;;;;;;;0.30;0.20;;;19.80;99.90;;;;;;5076431;28;20880;-79
2024/03/27 10:10:25;;;;;;;0.40;0.20;;;19.80;99.90;;;;;;5071680;28;20490;-78
2024/03/27 10:12:53;;;;;;;2.77;1.27;;;19.60;99.90;;;;;;5072862;28;21024;-78
2024/03/27 10:15:19;;;;;;;0.40;0.40;;;19.60;99.90;;;;;;5069454;28;21011;-76
2024/03/27 10:17:45;;;;;;;0.30;0.20;;;19.50;99.90;;;;;;5070376;28;21063;-79
2024/03/27 10:20:11;;;;;;;0.30;0.20;;;19.40;99.90;;;;;;5061867;28;20441;-76
2024/03/27 10:22:38;;;;;;;0.30;0.20;;;19.30;99.90;;;;;;5071141;28;20993;-78
2024/03/27 10:25:05;;;;;;;0.30;0.30;;;19.30;99.90;;;;;;5069776;28;20540;-76
2024/03/27 10:27:36;;;;;;;4.93;4.67;;;19.40;99.90;;;;;;5067120;28;20779;-79
2024/03/27 10:30:02;;;;;;;0.50;0.43;;;19.40;99.90;;;;;;5071543;28;20429;-76
2024/03/27 10:32:28;;;;;;;0.30;0.20;;;19.40;99.90;;;;;;5075741;28;20798;-76
2024/03/27 10:34:55;;;;;;;0.30;0.20;;;19.50;99.90;;;;;;5066136;28;20828;-79
2024/03/27 10:37:21;;;;;;;0.30;0.20;;;19.50;99.90;;;;;;5072460;28;20564;-78
2024/03/27 10:39:51;;;;;;;0.30;0.20;;;19.60;99.90;;;;;;5072143;28;20437;-79
2024/03/27 10:42:23;;;;;;;0.30;0.20;;;19.60;99.90;;;;;;5079123;28;20425;-77
2024/03/27 10:44:53;;;;;;;0.30;0.20;;;19.70;99.90;;;;;;5079941;28;20452;-79
2024/03/27 10:47:23;;;;;;;0.30;0.20;;;19.80;99.90;;;;;;5079773;28;20446;-74
2024/03/27 10:49:51;;;;;;;0.30;0.20;;;19.80;99.90;;;;;;5075942;28;20986;-75
2024/03/27 10:52:17;;;;;;;0.40;0.40;;;19.80;99.90;;;;;;5078999;28;20790;-76
2024/03/27 10:54:47;;;;;;;0.30;0.20;;;19.80;99.90;;;;;;5078467;28;20823;-78
2024/03/27 10:57:17;;;;;;;1.53;1.53;;;19.90;99.90;;;;;;5076374;28;20429;-77
2024/03/27 10:59:46;;;;;;;0.30;0.20;;;19.80;99.90;;;;;;5078778;28;20429;-79
2024/03/27 11:02:13;;;;;;;0.30;0.20;;;19.80;99.90;;;;;;5076990;28;20428;-79
2024/03/27 11:04:40;;;;;;;0.30;0.20;;;19.70;99.90;;;;;;5080367;28;20443;-78
2024/03/27 11:07:15;;;;;;;0.30;0.20;;;19.70;99.90;;;;;;5079428;28;20416;-79
2024/03/27 11:09:50;;;;;;;0.30;0.20;;;19.80;99.90;;;;;;5079538;28;20963;-78
2024/03/27 11:12:18;;;;;;;0.30;0.20;;;19.90;99.90;;;;;;5081676;28;20928;-76
2024/03/27 11:14:48;;;;;;;0.30;0.20;;;19.90;99.90;;;;;;5065434;28;20714;-78
2024/03/27 11:17:17;;;;;;;0.30;0.20;;;20.00;99.90;;;;;;5080620;28;20885;-76
2024/03/27 11:19:46;;;;;;;0.83;0.50;;;20.10;99.90;;;;;;5075856;28;20772;-78
2024/03/27 11:22:15;;;;;;;0.30;0.20;;;20.10;99.90;;;;;;5076589;28;20426;-78
2024/03/27 11:24:41;;;;;;;0.30;0.20;;;20.20;99.90;;;;;;5073195;28;21051;-76
2024/03/27 11:27:07;;;;;;;0.30;0.20;;;20.20;99.90;;;;;;5070437;28;20519;-75
2024/03/27 11:29:33;;;;;;;0.30;0.20;;;20.10;99.90;;;;;;5078215;28;20907;-75
2024/03/27 11:32:07;;;;;;;0.30;0.20;;;20.20;99.90;;;;;;5079715;28;20240;-78
2024/03/27 11:34:33;;;;;;;0.30;0.20;;;20.30;99.90;;;;;;5081581;28;20537;-77
2024/03/27 11:36:59;;;;;;;0.30;0.20;;;20.50;99.90;;;;;;5080350;28;20420;-76
2024/03/27 11:39:27;;;;;;;0.30;0.20;;;20.50;99.90;;;;;;5078536;28;20437;-78
2024/03/27 11:41:53;;;;;;;0.87;0.83;;;20.50;99.90;;;;;;5072730;28;20973;-79
2024/03/27 11:44:19;;;;;;;0.30;0.20;;;20.50;99.90;;;;;;5075730;28;20444;-79
2024/03/27 11:46:46;;;;;;;0.70;0.70;;;20.50;99.90;;;;;;5074792;28;21045;-79
2024/03/27 11:49:15;;;;;;;0.30;0.20;;;20.50;99.90;;;;;;5078229;28;20952;-77
2024/03/27 11:51:42;;;;;;;0.30;0.20;;;20.60;99.90;;;;;;5076919;28;20436;-76
2024/03/27 11:54:08;;;;;;;0.40;0.40;;;20.60;99.90;;;;;;5080068;28;20473;-76
2024/03/27 11:56:35;;;;;;;2.20;2.10;;;20.60;99.90;;;;;;5076774;28;20996;-75
2024/03/27 11:59:03;;;;;;;0.30;0.20;;;20.60;99.90;;;;;;5073722;28;20453;-77
2024/03/27 12:01:29;;;;;;;0.63;0.63;;;20.70;99.90;;;;;;5072484;28;20437;-78
2024/03/27 12:03:57;;;;;;;0.40;0.40;;;20.80;99.90;;;;;;5070788;28;20465;-76
2024/03/27 12:06:28;;;;;;;0.30;0.20;;;20.80;99.90;;;;;;5071093;28;20437;-75
2024/03/27 12:08:54;;;;;;;0.30;0.20;;;20.90;99.90;;;;;;5072500;28;20480;-75
2024/03/27 12:11:20;;;;;;;0.30;0.20;;;20.90;99.90;;;;;;5067658;28;20503;-78
2024/03/27 12:13:47;;;;;;;0.30;0.20;;;20.90;99.90;;;;;;5068009;28;20220;-76
2024/03/27 12:16:14;;;;;;;0.30;0.30;;;21.00;99.90;;;;;;5070722;28;20420;-78
2024/03/27 12:18:41;;;;;;;0.30;0.20;;;21.00;99.90;;;;;;5065678;28;21991;-77
2024/03/27 12:21:14;;;;;;;0.30;0.20;;;20.90;99.90;;;;;;5060239;28;20878;-76
2024/03/27 12:23:41;;;;;;;0.30;0.20;;;20.90;99.90;;;;;;5068713;28;20960;-77
2024/03/27 12:26:15;;;;;;;0.30;0.20;;;20.90;99.90;;;;;;5069620;28;20550;-78
2024/03/27 12:28:43;;;;;;;0.30;0.20;;;21.00;99.90;;;;;;5072596;28;20821;-75
2024/03/27 12:31:14;;;;;;;0.30;0.20;;;21.00;99.90;;;;;;5073006;28;20508;-78
2024/03/27 12:33:40;;;;;;;0.30;0.20;;;21.10;99.90;;;;;;5071808;28;20481;-78
2024/03/27 12:36:06;;;;;;;0.30;0.20;;;21.20;99.90;;;;;;5070693;28;20632;-76
2024/03/27 12:38:32;;;;;;;0.30;0.20;;;21.30;99.90;;;;;;5076219;28;20525;-77
2024/03/27 12:40:57;;;;;;;0.67;0.67;;;21.30;99.90;;;;;;5074948;28;20513;-75
2024/03/27 12:43:23;;;;;;;1.27;0.83;;;21.30;99.90;;;;;;5077522;28;20212;-76
2024/03/27 12:45:49;;;;;;;0.30;0.20;;;21.30;99.90;;;;;;5078811;28;20184;-78